Time;durP1;ratioP1;P1;durP2;ratioP2;P2;SDS_P1;SDS_P2;PMS_P1;PMS_P2;Temp;Humidity;BMP_temperature;BMP_pressure;BME280_temperature;BME280_humidity;BME280_pressure;Samples;Min_cycle;Max_cycle;Signal;HPM_P1;HPM_P2
2021/12/27 00:02:01;;;;;;;10.93;7.55;;;;;;;;;;5022756;28;20536;-59
2021/12/27 00:04:26;;;;;;;13.07;7.60;;;;;;;;;;5022323;28;20132;-60
2021/12/27 00:06:51;;;;;;;12.40;7.65;;;;;;;;;;5022352;28;20151;-60
2021/12/27 00:09:17;;;;;;;12.40;7.63;;;;;;;;;;5022599;28;20044;-56
2021/12/27 00:11:43;;;;;;;12.85;7.45;;;;;;;;;;5019579;28;20033;-58
2021/12/27 00:14:08;;;;;;;12.30;7.70;;;;;;;;;;5020432;28;20022;-58
2021/12/27 00:16:34;;;;;;;12.80;7.25;;;;;;;;;;5018698;28;20437;-60
2021/12/27 00:18:59;;;;;;;13.60;7.90;;;;;;;;;;5024300;28;20087;-59
2021/12/27 00:21:25;;;;;;;13.13;7.90;;;;;;;;;;5021224;28;20021;-60
2021/12/27 00:23:50;;;;;;;11.98;7.43;;;;;;;;;;5022437;28;20118;-58
2021/12/27 00:26:16;;;;;;;14.10;8.10;;;;;;;;;;5020737;28;20034;-52
2021/12/27 00:28:41;;;;;;;15.10;8.52;;;;;;;;;;5021004;28;20039;-60
2021/12/27 00:31:06;;;;;;;13.52;7.70;;;;;;;;;;5025443;28;20526;-56
2021/12/27 00:33:32;;;;;;;11.43;7.65;;;;;;;;;;5021386;28;20045;-57
2021/12/27 00:35:58;;;;;;;13.75;7.97;;;;;;;;;;5021573;28;20057;-59
2021/12/27 00:38:23;;;;;;;16.50;7.70;;;;;;;;;;5003997;28;20872;-59
2021/12/27 00:40:49;;;;;;;12.80;7.68;;;;;;;;;;5020577;28;20085;-55
2021/12/27 00:43:16;;;;;;;14.25;8.13;;;;;;;;;;5024607;28;20091;-60
2021/12/27 00:45:42;;;;;;;14.13;7.57;;;;;;;;;;5025133;28;20068;-55
2021/12/27 00:48:07;;;;;;;14.13;7.72;;;;;;;;;;5025009;28;20041;-58
2021/12/27 00:50:33;;;;;;;11.85;7.28;;;;;;;;;;5024736;28;20037;-58
2021/12/27 00:52:58;;;;;;;12.93;8.02;;;;;;;;;;5024614;28;20037;-60
2021/12/27 00:55:24;;;;;;;12.40;7.78;;;;;;;;;;5025456;28;20033;-57
2021/12/27 00:57:52;;;;;;;13.15;7.35;;;;;;;;;;5026202;28;20055;-59
2021/12/27 01:00:19;;;;;;;14.85;7.13;;;;;;;;;;5024113;28;20025;-61
2021/12/27 01:02:45;;;;;;;13.45;8.00;;;;;;;;;;5028080;28;20029;-60
2021/12/27 01:05:11;;;;;;;12.38;7.85;;;;;;;;;;5022698;28;20111;-60
2021/12/27 01:07:36;;;;;;;11.63;7.07;;;;;;;;;;5026338;28;20033;-59
2021/12/27 01:13:03;;;;;;;10.50;6.47;;;;;;;;;;5022628;28;20489;-58
2021/12/27 01:15:46;;;;;;;10.70;6.47;;;;;;;;;;5028000;28;20116;-59
2021/12/27 01:18:11;;;;;;;12.70;7.15;;;;;;;;;;5024498;28;20052;-60
2021/12/27 01:20:37;;;;;;;10.25;6.75;;;;;;;;;;5025794;28;20013;-56
2021/12/27 01:23:03;;;;;;;10.80;6.53;;;;;;;;;;5024110;28;20033;-58
2021/12/27 01:25:28;;;;;;;12.20;7.22;;;;;;;;;;5027035;28;20048;-57
2021/12/27 01:27:54;;;;;;;13.15;7.00;;;;;;;;;;5025752;28;20040;-60
2021/12/27 01:30:21;;;;;;;10.70;7.30;;;;;;;;;;5026017;28;20029;-57
2021/12/27 01:32:51;;;;;;;13.07;7.00;;;;;;;;;;5026836;28;20029;-58
2021/12/27 01:35:18;;;;;;;13.57;7.20;;;;;;;;;;5026269;28;20067;-59
2021/12/27 01:37:44;;;;;;;11.60;6.53;;;;;;;;;;5026863;28;20095;-58
2021/12/27 01:40:13;;;;;;;10.13;6.35;;;;;;;;;;5028193;28;20454;-58
2021/12/27 01:43:20;;;;;;;12.48;7.28;;;;;;;;;;5027737;28;20033;-55
2021/12/27 01:45:55;;;;;;;12.35;7.32;;;;;;;;;;5026941;28;20113;-58
2021/12/27 01:48:23;;;;;;;12.93;7.40;;;;;;;;;;5025523;28;20029;-56
2021/12/27 01:50:50;;;;;;;11.18;7.00;;;;;;;;;;5011275;28;20029;-58
2021/12/27 01:53:18;;;;;;;12.25;7.10;;;;;;;;;;5023805;28;20056;-61
2021/12/27 01:55:45;;;;;;;12.02;7.22;;;;;;;;;;5027072;28;20944;-59
2021/12/27 01:58:11;;;;;;;14.25;7.30;;;;;;;;;;5025062;28;20033;-59
2021/12/27 02:00:41;;;;;;;13.13;7.55;;;;;;;;;;5026842;28;20108;-57
2021/12/27 02:03:06;;;;;;;11.30;6.95;;;;;;;;;;5026245;28;20068;-53
2021/12/27 02:05:32;;;;;;;13.02;7.22;;;;;;;;;;5026123;28;20057;-59
2021/12/27 02:07:58;;;;;;;11.57;7.05;;;;;;;;;;5026629;28;20032;-58
2021/12/27 02:10:23;;;;;;;12.98;7.38;;;;;;;;;;5027103;28;20033;-59
2021/12/27 02:12:50;;;;;;;14.02;7.43;;;;;;;;;;5026196;28;20033;-58
2021/12/27 02:15:15;;;;;;;11.48;7.00;;;;;;;;;;5025264;28;20488;-60
2021/12/27 02:17:43;;;;;;;12.38;7.35;;;;;;;;;;5026304;28;20104;-60
2021/12/27 02:20:17;;;;;;;11.55;6.80;;;;;;;;;;5026642;28;20056;-57
2021/12/27 02:22:44;;;;;;;9.70;6.63;;;;;;;;;;5026677;28;20128;-60
2021/12/27 02:25:10;;;;;;;12.10;7.28;;;;;;;;;;5009260;28;20072;-57
2021/12/27 02:27:35;;;;;;;12.77;7.15;;;;;;;;;;5024959;28;20048;-58
2021/12/27 02:30:06;;;;;;;10.13;6.93;;;;;;;;;;5026510;28;20040;-60
2021/12/27 02:32:31;;;;;;;12.73;7.30;;;;;;;;;;5023777;28;20029;-58
2021/12/27 02:34:57;;;;;;;9.73;6.22;;;;;;;;;;5025876;28;20084;-59
2021/12/27 02:37:22;;;;;;;11.02;6.85;;;;;;;;;;5025640;28;20029;-56
2021/12/27 02:39:48;;;;;;;11.00;6.78;;;;;;;;;;5025729;28;20030;-60
2021/12/27 02:42:19;;;;;;;11.95;6.45;;;;;;;;;;5007810;28;20115;-59
2021/12/27 02:44:45;;;;;;;11.45;6.50;;;;;;;;;;5008662;28;20056;-53
2021/12/27 02:47:14;;;;;;;11.25;6.55;;;;;;;;;;5025185;28;20057;-56
2021/12/27 02:49:40;;;;;;;11.07;6.90;;;;;;;;;;5022051;28;20477;-53
2021/12/27 02:52:05;;;;;;;10.80;7.07;;;;;;;;;;5023058;28;20026;-58
2021/12/27 02:54:31;;;;;;;12.27;7.45;;;;;;;;;;5024258;28;20059;-57
2021/12/27 02:56:56;;;;;;;12.48;6.72;;;;;;;;;;5024768;28;20229;-59
2021/12/27 02:59:22;;;;;;;11.98;7.32;;;;;;;;;;5023224;28;20035;-59
2021/12/27 03:01:47;;;;;;;14.05;7.03;;;;;;;;;;5024820;28;20026;-58
2021/12/27 03:04:12;;;;;;;11.30;6.93;;;;;;;;;;5020262;28;20099;-58
2021/12/27 03:06:38;;;;;;;10.88;6.65;;;;;;;;;;5023428;28;20478;-59
2021/12/27 03:09:03;;;;;;;13.52;6.97;;;;;;;;;;5021876;28;20026;-61
2021/12/27 03:11:29;;;;;;;12.30;7.05;;;;;;;;;;5025391;28;20033;-62
2021/12/27 03:13:55;;;;;;;10.70;7.03;;;;;;;;;;5020886;28;20029;-61
2021/12/27 03:16:22;;;;;;;11.07;6.45;;;;;;;;;;5023694;28;20116;-60
2021/12/27 03:18:51;;;;;;;11.10;6.80;;;;;;;;;;5023727;28;20025;-60
2021/12/27 03:21:18;;;;;;;12.05;6.72;;;;;;;;;;5020568;28;20041;-59
2021/12/27 03:23:45;;;;;;;14.75;7.07;;;;;;;;;;5008994;28;20533;-61
2021/12/27 03:26:10;;;;;;;11.25;6.82;;;;;;;;;;5022541;28;20389;-61
2021/12/27 03:28:37;;;;;;;13.00;7.72;;;;;;;;;;5022823;28;20033;-57
2021/12/27 03:31:03;;;;;;;11.65;6.70;;;;;;;;;;5021733;28;20367;-59
2021/12/27 03:33:29;;;;;;;14.88;7.30;;;;;;;;;;5023343;28;20029;-60
2021/12/27 03:36:04;;;;;;;11.75;6.65;;;;;;;;;;5021827;28;20029;-60
2021/12/27 03:38:39;;;;;;;12.25;6.70;;;;;;;;;;5021723;28;20037;-61
2021/12/27 03:41:07;;;;;;;14.63;7.28;;;;;;;;;;5020202;28;20418;-61
2021/12/27 03:43:33;;;;;;;16.52;8.38;;;;;;;;;;5021279;28;20021;-62
2021/12/27 03:45:58;;;;;;;16.80;8.35;;;;;;;;;;5021252;28;20523;-61
2021/12/27 03:48:24;;;;;;;15.57;7.63;;;;;;;;;;5022294;28;20444;-61
2021/12/27 03:50:49;;;;;;;19.42;8.45;;;;;;;;;;5023702;28;20029;-61
2021/12/27 03:53:16;;;;;;;18.85;8.38;;;;;;;;;;5021380;28;20540;-60
2021/12/27 03:55:42;;;;;;;19.63;8.73;;;;;;;;;;5022731;28;20025;-60
2021/12/27 03:58:09;;;;;;;18.92;8.65;;;;;;;;;;5021824;28;20041;-60
2021/12/27 04:01:15;;;;;;;20.48;9.25;;;;;;;;;;5022633;28;20030;-61
2021/12/27 04:03:32;;;;;;;20.75;8.30;;;;;;;;;;5020080;28;20416;-61
2021/12/27 04:05:58;;;;;;;16.63;8.35;;;;;;;;;;5021580;28;20120;-58
2021/12/27 04:08:23;;;;;;;21.77;9.23;;;;;;;;;;5022742;28;20096;-60
2021/12/27 04:10:49;;;;;;;20.55;9.35;;;;;;;;;;5020338;28;20053;-63
2021/12/27 04:13:18;;;;;;;20.98;9.65;;;;;;;;;;5021894;28;20037;-60
2021/12/27 04:15:45;;;;;;;20.42;8.70;;;;;;;;;;5005785;28;20030;-58
2021/12/27 04:18:11;;;;;;;19.60;8.90;;;;;;;;;;5025343;28;20025;-61
2021/12/27 04:20:37;;;;;;;22.52;9.50;;;;;;;;;;5026402;28;20060;-57
2021/12/27 04:23:02;;;;;;;24.23;9.57;;;;;;;;;;5024722;28;20060;-59
2021/12/27 04:25:28;;;;;;;21.00;9.27;;;;;;;;;;5025859;28;21130;-62
2021/12/27 04:27:53;;;;;;;22.55;9.35;;;;;;;;;;5026890;28;20166;-61
2021/12/27 04:30:19;;;;;;;23.02;9.25;;;;;;;;;;5027178;28;20041;-61
2021/12/27 04:32:46;;;;;;;24.70;9.90;;;;;;;;;;5025437;28;20037;-58
2021/12/27 04:35:12;;;;;;;22.38;9.07;;;;;;;;;;5026157;28;20036;-61
2021/12/27 04:37:38;;;;;;;23.75;8.77;;;;;;;;;;5026706;28;20071;-60
2021/12/27 04:40:06;;;;;;;19.70;9.05;;;;;;;;;;5025594;28;20381;-59
2021/12/27 04:42:32;;;;;;;21.65;9.88;;;;;;;;;;5022311;28;20037;-59
2021/12/27 04:44:59;;;;;;;22.55;8.77;;;;;;;;;;5024707;28;20044;-61
2021/12/27 04:47:25;;;;;;;21.27;8.60;;;;;;;;;;5024265;28;20033;-60
2021/12/27 04:49:51;;;;;;;23.70;8.93;;;;;;;;;;5026038;28;20721;-58
2021/12/27 04:52:16;;;;;;;21.75;9.05;;;;;;;;;;5024623;28;20017;-60
2021/12/27 04:54:42;;;;;;;23.23;9.50;;;;;;;;;;5024761;28;20285;-59
2021/12/27 04:57:07;;;;;;;22.90;9.30;;;;;;;;;;5027061;28;20431;-61
2021/12/27 04:59:33;;;;;;;21.13;8.88;;;;;;;;;;5024655;28;20029;-60
2021/12/27 05:01:58;;;;;;;20.17;9.45;;;;;;;;;;5024605;28;20029;-57
2021/12/27 05:04:24;;;;;;;20.55;8.60;;;;;;;;;;5024509;28;20041;-61
2021/12/27 05:06:49;;;;;;;22.88;9.48;;;;;;;;;;5025011;28;20053;-59
2021/12/27 05:09:15;;;;;;;23.88;8.52;;;;;;;;;;5006592;28;20033;-61
2021/12/27 05:11:41;;;;;;;23.00;9.27;;;;;;;;;;5022792;28;20033;-62
2021/12/27 05:14:06;;;;;;;18.48;8.25;;;;;;;;;;5022561;28;20359;-62
2021/12/27 05:16:32;;;;;;;19.92;8.00;;;;;;;;;;5024816;28;20029;-59
2021/12/27 05:18:58;;;;;;;16.45;7.72;;;;;;;;;;5023156;28;20092;-59
2021/12/27 05:21:23;;;;;;;13.13;7.28;;;;;;;;;;5026551;28;20490;-60
2021/12/27 05:23:49;;;;;;;15.13;6.93;;;;;;;;;;5026143;28;20025;-59
2021/12/27 05:26:14;;;;;;;19.05;8.10;;;;;;;;;;5007892;28;20448;-58
2021/12/27 05:28:40;;;;;;;14.90;7.30;;;;;;;;;;5024056;28;20021;-59
2021/12/27 05:31:05;;;;;;;16.27;6.93;;;;;;;;;;5023390;28;20072;-55
2021/12/27 05:33:31;;;;;;;17.75;7.47;;;;;;;;;;5025474;28;21131;-52
2021/12/27 05:35:56;;;;;;;13.85;6.70;;;;;;;;;;5008292;28;20465;-57
2021/12/27 05:38:22;;;;;;;14.07;7.43;;;;;;;;;;5025827;28;20397;-56
2021/12/27 05:40:47;;;;;;;13.20;6.38;;;;;;;;;;5005789;28;20100;-57
2021/12/27 05:43:13;;;;;;;14.75;6.93;;;;;;;;;;5024942;28;20088;-56
2021/12/27 05:45:38;;;;;;;13.27;6.25;;;;;;;;;;5023045;28;20033;-55
2021/12/27 05:48:05;;;;;;;13.98;6.18;;;;;;;;;;5023373;28;20163;-52
2021/12/27 05:50:31;;;;;;;15.50;7.35;;;;;;;;;;5023946;28;20063;-57
2021/12/27 05:52:57;;;;;;;15.55;7.60;;;;;;;;;;5023300;28;20029;-57
2021/12/27 05:55:22;;;;;;;15.55;7.03;;;;;;;;;;5023222;28;20178;-56
2021/12/27 05:57:48;;;;;;;15.13;7.05;;;;;;;;;;5005262;28;20397;-55
2021/12/27 06:00:15;;;;;;;12.55;6.68;;;;;;;;;;5023698;28;20426;-57
2021/12/27 06:02:42;;;;;;;17.67;6.80;;;;;;;;;;5024467;28;20022;-57
2021/12/27 06:05:08;;;;;;;15.43;7.25;;;;;;;;;;5022133;28;20048;-53
2021/12/27 06:07:34;;;;;;;14.07;6.35;;;;;;;;;;5024323;28;20044;-56
2021/12/27 06:09:59;;;;;;;14.52;7.35;;;;;;;;;;5022926;28;20117;-56
2021/12/27 06:12:25;;;;;;;13.48;5.85;;;;;;;;;;5021002;28;20473;-54
2021/12/27 06:14:50;;;;;;;13.88;6.45;;;;;;;;;;5022063;28;21093;-57
2021/12/27 06:17:16;;;;;;;12.68;6.57;;;;;;;;;;5020607;28;20037;-54
2021/12/27 06:19:41;;;;;;;14.93;6.35;;;;;;;;;;5022081;28;20497;-53
2021/12/27 06:22:07;;;;;;;11.95;5.93;;;;;;;;;;5023470;28;20113;-49
2021/12/27 06:24:32;;;;;;;14.45;6.55;;;;;;;;;;5023596;28;20041;-56
2021/12/27 06:26:58;;;;;;;16.60;6.97;;;;;;;;;;5022770;28;20486;-56
2021/12/27 06:29:23;;;;;;;12.18;6.20;;;;;;;;;;5023884;28;20037;-55
2021/12/27 06:31:49;;;;;;;13.45;6.25;;;;;;;;;;5023185;28;20025;-54
2021/12/27 06:34:14;;;;;;;10.90;6.00;;;;;;;;;;5023841;28;20033;-56
2021/12/27 06:36:40;;;;;;;14.00;6.05;;;;;;;;;;5018876;28;20025;-54
2021/12/27 06:39:08;;;;;;;12.93;6.30;;;;;;;;;;5042350;28;20069;-55
2021/12/27 06:41:34;;;;;;;11.32;5.80;;;;;;;;;;5043027;28;20033;-56
2021/12/27 06:43:59;;;;;;;10.85;5.25;;;;;;;;;;5073172;28;20056;-57
2021/12/27 06:46:26;;;;;;;11.50;5.47;;;;;;;;;;5042319;28;20076;-52
2021/12/27 06:48:51;;;;;;;11.93;6.05;;;;;;;;;;5042899;28;20083;-56
2021/12/27 06:51:17;;;;;;;14.98;7.25;;;;;;;;;;5043199;28;20234;-56
2021/12/27 06:53:42;;;;;;;11.32;6.25;;;;;;;;;;5043005;28;20040;-56
2021/12/27 06:56:07;;;;;;;14.68;6.80;;;;;;;;;;5044094;28;20029;-54
2021/12/27 06:58:33;;;;;;;13.55;6.25;;;;;;;;;;5043382;28;20033;-50
2021/12/27 07:00:58;;;;;;;12.68;6.00;;;;;;;;;;5058695;28;20592;-54
2021/12/27 07:03:24;;;;;;;13.07;5.60;;;;;;;;;;5042005;28;20032;-52
2021/12/27 07:05:49;;;;;;;13.32;6.40;;;;;;;;;;5044069;28;20063;-56
2021/12/27 07:08:16;;;;;;;12.93;5.65;;;;;;;;;;5044002;28;20698;-56
2021/12/27 07:10:42;;;;;;;12.23;5.90;;;;;;;;;;5044264;28;20032;-57
2021/12/27 07:13:09;;;;;;;12.55;5.63;;;;;;;;;;5041461;28;20074;-56
2021/12/27 07:15:41;;;;;;;10.65;5.60;;;;;;;;;;5043033;28;20288;-55
2021/12/27 07:18:16;;;;;;;9.38;5.80;;;;;;;;;;5043571;28;20027;-55
2021/12/27 07:20:41;;;;;;;10.90;6.07;;;;;;;;;;5041166;28;20040;-52
2021/12/27 07:23:07;;;;;;;10.80;5.97;;;;;;;;;;5042321;28;20408;-55
2021/12/27 07:25:33;;;;;;;10.25;5.28;;;;;;;;;;5041734;28;20096;-55
2021/12/27 07:27:59;;;;;;;15.15;5.70;;;;;;;;;;5041067;28;20029;-56
2021/12/27 07:30:25;;;;;;;12.15;5.47;;;;;;;;;;5043780;28;20025;-57
2021/12/27 07:32:51;;;;;;;12.63;5.75;;;;;;;;;;5041069;28;20028;-56
2021/12/27 07:35:16;;;;;;;17.17;7.05;;;;;;;;;;5041739;28;20497;-55
2021/12/27 07:37:42;;;;;;;15.63;6.72;;;;;;;;;;5024062;28;20037;-54
2021/12/27 07:40:09;;;;;;;14.85;6.30;;;;;;;;;;5023157;28;20108;-57
2021/12/27 07:42:35;;;;;;;14.10;6.00;;;;;;;;;;5020817;28;20045;-55
2021/12/27 07:45:02;;;;;;;18.05;6.75;;;;;;;;;;5022912;28;20029;-56
2021/12/27 07:47:27;;;;;;;14.88;6.60;;;;;;;;;;5005505;28;20103;-55
2021/12/27 07:49:53;;;;;;;14.93;6.30;;;;;;;;;;5021813;28;20068;-55
2021/12/27 07:52:18;;;;;;;12.88;5.78;;;;;;;;;;5023199;28;20489;-57
2021/12/27 07:54:43;;;;;;;12.38;5.53;;;;;;;;;;5026529;28;20041;-56
2021/12/27 07:57:11;;;;;;;14.35;6.63;;;;;;;;;;5025650;28;20037;-57
2021/12/27 07:59:37;;;;;;;14.88;7.43;;;;;;;;;;5024505;28;20034;-54
2021/12/27 08:02:03;;;;;;;13.68;5.47;;;;;;;;;;5009081;28;20044;-56
2021/12/27 08:04:28;;;;;;;12.35;5.88;;;;;;;;;;5026319;28;20029;-57
2021/12/27 08:06:53;;;;;;;13.82;5.72;;;;;;;;;;5025804;28;20158;-56
2021/12/27 08:09:19;;;;;;;14.68;6.20;;;;;;;;;;5025099;28;20062;-56
2021/12/27 08:11:44;;;;;;;13.63;5.88;;;;;;;;;;5025804;28;20025;-56
2021/12/27 08:14:10;;;;;;;14.07;5.25;;;;;;;;;;5025445;28;20186;-57
2021/12/27 08:16:35;;;;;;;14.00;6.53;;;;;;;;;;5026610;28;20139;-55
2021/12/27 08:19:01;;;;;;;19.98;6.13;;;;;;;;;;5026780;28;20021;-56
2021/12/27 08:21:26;;;;;;;18.95;7.10;;;;;;;;;;5008643;28;20044;-56
2021/12/27 08:23:53;;;;;;;17.90;6.38;;;;;;;;;;5025456;28;20136;-53
2021/12/27 08:26:19;;;;;;;20.42;7.35;;;;;;;;;;5023955;28;20063;-55
2021/12/27 08:28:47;;;;;;;20.90;6.88;;;;;;;;;;5025900;28;20048;-55
2021/12/27 08:31:13;;;;;;;20.27;7.43;;;;;;;;;;5007023;28;20052;-56
2021/12/27 08:33:38;;;;;;;25.33;7.47;;;;;;;;;;5025134;28;20087;-56
2021/12/27 08:36:04;;;;;;;23.13;6.65;;;;;;;;;;5025868;28;20161;-56
2021/12/27 08:38:29;;;;;;;24.90;7.78;;;;;;;;;;5024934;28;20427;-56
2021/12/27 08:40:55;;;;;;;23.02;7.82;;;;;;;;;;5024288;28;20102;-56
2021/12/27 08:43:20;;;;;;;24.85;7.72;;;;;;;;;;5026609;28;20025;-57
2021/12/27 08:45:46;;;;;;;25.08;7.93;;;;;;;;;;5026339;28;20029;-53
2021/12/27 08:48:11;;;;;;;19.77;7.80;;;;;;;;;;5024286;28;20033;-56
2021/12/27 08:50:37;;;;;;;20.65;7.70;;;;;;;;;;5026277;28;20031;-55
2021/12/27 08:53:06;;;;;;;22.35;8.20;;;;;;;;;;5024197;28;20026;-56
2021/12/27 08:55:33;;;;;;;23.08;7.82;;;;;;;;;;5023834;28;20063;-56
2021/12/27 08:57:59;;;;;;;24.08;8.55;;;;;;;;;;5005106;28;20033;-54
2021/12/27 09:00:24;;;;;;;26.95;8.98;;;;;;;;;;5022815;28;20033;-56
2021/12/27 09:02:50;;;;;;;29.98;9.38;;;;;;;;;;5024690;28;20033;-54
2021/12/27 09:05:15;;;;;;;25.33;8.70;;;;;;;;;;5024647;28;20033;-56
2021/12/27 09:07:41;;;;;;;27.85;9.82;;;;;;;;;;5024844;28;20030;-56
2021/12/27 09:10:08;;;;;;;22.15;8.80;;;;;;;;;;5025437;28;20041;-55
2021/12/27 09:12:33;;;;;;;30.48;8.95;;;;;;;;;;5023689;28;20033;-57
2021/12/27 09:14:59;;;;;;;29.40;9.38;;;;;;;;;;5005510;28;20143;-56
2021/12/27 09:17:24;;;;;;;27.50;9.55;;;;;;;;;;5025300;28;20033;-56
2021/12/27 09:19:50;;;;;;;21.67;8.73;;;;;;;;;;5023742;28;20030;-55
2021/12/27 09:22:16;;;;;;;23.70;8.82;;;;;;;;;;5007496;28;20166;-56
2021/12/27 09:24:42;;;;;;;22.95;8.82;;;;;;;;;;5022778;28;20104;-55
2021/12/27 09:27:08;;;;;;;25.20;9.27;;;;;;;;;;5021681;28;20033;-57
2021/12/27 09:29:34;;;;;;;31.65;9.95;;;;;;;;;;5006259;28;20048;-56
2021/12/27 09:32:00;;;;;;;28.02;9.57;;;;;;;;;;5024029;28;20728;-56
2021/12/27 09:34:25;;;;;;;31.90;10.35;;;;;;;;;;5025282;28;20017;-56
2021/12/27 09:36:50;;;;;;;25.10;9.85;;;;;;;;;;5024326;28;20083;-54
2021/12/27 09:39:16;;;;;;;42.30;10.48;;;;;;;;;;5025889;28;20032;-57
2021/12/27 09:41:42;;;;;;;30.45;10.38;;;;;;;;;;5023934;28;20251;-55
2021/12/27 09:44:07;;;;;;;46.83;10.75;;;;;;;;;;5023518;28;20029;-54
2021/12/27 09:46:33;;;;;;;31.15;10.20;;;;;;;;;;5023789;28;20428;-56
2021/12/27 09:49:02;;;;;;;27.65;10.95;;;;;;;;;;5026211;28;20120;-56
2021/12/27 09:51:28;;;;;;;24.27;9.85;;;;;;;;;;5024369;28;20022;-55
2021/12/27 09:53:54;;;;;;;29.25;10.75;;;;;;;;;;5023018;28;20516;-55
2021/12/27 09:56:19;;;;;;;31.27;10.50;;;;;;;;;;5022739;28;20028;-56
2021/12/27 09:58:45;;;;;;;26.38;9.80;;;;;;;;;;5006557;28;20033;-54
2021/12/27 10:01:10;;;;;;;25.40;9.13;;;;;;;;;;5020915;28;20535;-56
2021/12/27 10:03:48;;;;;;;29.25;10.45;;;;;;;;;;5023823;28;20037;-56
2021/12/27 10:06:15;;;;;;;29.08;9.98;;;;;;;;;;5023004;28;20028;-57
2021/12/27 10:08:52;;;;;;;32.47;9.90;;;;;;;;;;5023947;28;20482;-56
2021/12/27 10:11:39;;;;;;;26.27;10.18;;;;;;;;;;5023441;28;20048;-56
2021/12/27 10:14:26;;;;;;;25.30;9.75;;;;;;;;;;5023370;28;20052;-57
2021/12/27 10:17:11;;;;;;;24.23;9.77;;;;;;;;;;5021798;28;20108;-55
2021/12/27 10:19:37;;;;;;;24.90;10.55;;;;;;;;;;5023718;28;20047;-54
2021/12/27 10:22:08;;;;;;;30.30;10.50;;;;;;;;;;5022520;28;20390;-56
2021/12/27 10:24:34;;;;;;;24.15;9.10;;;;;;;;;;5024191;28;20040;-53
2021/12/27 10:27:01;;;;;;;24.83;9.05;;;;;;;;;;5021759;28;20133;-54
2021/12/27 10:29:30;;;;;;;22.67;10.07;;;;;;;;;;5021548;28;20482;-57
2021/12/27 10:32:10;;;;;;;25.60;10.02;;;;;;;;;;5022508;28;20225;-57
2021/12/27 10:34:49;;;;;;;22.80;9.68;;;;;;;;;;5024837;28;20025;-56
2021/12/27 10:37:17;;;;;;;18.50;8.40;;;;;;;;;;5023276;28;20037;-57
2021/12/27 10:39:55;;;;;;;23.60;9.02;;;;;;;;;;5023182;28;20033;-56
2021/12/27 10:42:28;;;;;;;22.30;9.13;;;;;;;;;;5023170;28;20078;-55
2021/12/27 10:44:59;;;;;;;21.63;9.13;;;;;;;;;;5006018;28;20486;-57
2021/12/27 10:47:33;;;;;;;23.70;9.43;;;;;;;;;;5023792;28;20029;-55
2021/12/27 10:50:16;;;;;;;21.98;8.73;;;;;;;;;;5021946;28;20041;-56
2021/12/27 10:53:02;;;;;;;;;;;;;;;;;;5023875;28;20037;-52
2021/12/27 10:55:38;;;;;;;18.40;8.23;;;;;;;;;;5023769;28;19921;-56
2021/12/27 10:58:27;;;;;;;21.95;9.25;;;;;;;;;;5024104;28;20064;-55
2021/12/27 11:01:01;;;;;;;19.67;8.90;;;;;;;;;;5021733;28;20022;-55
2021/12/27 11:03:38;;;;;;;19.65;8.60;;;;;;;;;;5022683;28;20030;-56
2021/12/27 11:06:06;;;;;;;21.50;9.73;;;;;;;;;;5006542;28;20043;-57
2021/12/27 11:08:34;;;;;;;22.23;9.35;;;;;;;;;;5024725;28;20037;-56
2021/12/27 11:10:59;;;;;;;22.33;8.93;;;;;;;;;;5023024;28;20041;-58
2021/12/27 11:13:26;;;;;;;22.25;8.90;;;;;;;;;;5022951;28;20029;-57
2021/12/27 11:15:53;;;;;;;20.92;8.70;;;;;;;;;;5023274;28;20147;-57
2021/12/27 11:18:18;;;;;;;24.67;9.25;;;;;;;;;;5022437;28;20515;-53
2021/12/27 11:20:47;;;;;;;24.70;8.93;;;;;;;;;;5021885;28;20071;-57
2021/12/27 11:23:14;;;;;;;23.40;8.93;;;;;;;;;;5021920;28;20044;-54
2021/12/27 11:25:41;;;;;;;33.78;9.43;;;;;;;;;;5022735;28;20021;-57
2021/12/27 11:28:29;;;;;;;22.02;8.85;;;;;;;;;;5022260;28;20052;-56
2021/12/27 11:30:56;;;;;;;19.63;8.43;;;;;;;;;;5022539;28;20033;-56
2021/12/27 11:33:22;;;;;;;23.63;9.48;;;;;;;;;;5021120;28;20025;-57
2021/12/27 11:35:57;;;;;;;20.95;9.80;;;;;;;;;;5022856;28;20029;-55
2021/12/27 11:38:34;;;;;;;21.40;8.85;;;;;;;;;;5023530;28;20037;-55
2021/12/27 11:41:02;;;;;;;28.73;10.65;;;;;;;;;;5023200;28;20059;-50
2021/12/27 11:43:47;;;;;;;22.73;9.23;;;;;;;;;;5022888;28;20040;-57
2021/12/27 11:46:13;;;;;;;23.83;9.57;;;;;;;;;;5023275;28;20037;-55
2021/12/27 11:48:50;;;;;;;26.50;10.18;;;;;;;;;;5023269;28;20401;-56
2021/12/27 11:51:17;;;;;;;26.67;10.27;;;;;;;;;;5024744;28;20030;-53
2021/12/27 11:53:55;;;;;;;22.75;10.02;;;;;;;;;;5022342;28;20033;-56
2021/12/27 11:56:42;;;;;;;27.58;10.50;;;;;;;;;;5022797;28;20030;-58
2021/12/27 11:59:22;;;;;;;24.65;9.45;;;;;;;;;;5020753;28;20053;-56
2021/12/27 12:01:53;;;;;;;25.42;10.15;;;;;;;;;;5023836;28;20032;-55
2021/12/27 12:04:41;;;;;;;24.63;9.50;;;;;;;;;;5022081;28;20095;-56
2021/12/27 12:07:30;;;;;;;22.63;9.98;;;;;;;;;;5022449;28;20370;-57
2021/12/27 12:09:56;;;;;;;24.13;9.65;;;;;;;;;;5023180;28;20140;-55
2021/12/27 12:12:22;;;;;;;25.48;9.98;;;;;;;;;;5021945;28;20859;-55
2021/12/27 12:14:54;;;;;;;22.35;10.00;;;;;;;;;;5023212;28;20025;-53
2021/12/27 12:17:40;;;;;;;20.65;9.65;;;;;;;;;;5022604;28;20033;-56
2021/12/27 12:20:07;;;;;;;23.15;10.88;;;;;;;;;;5022194;28;20025;-56
2021/12/27 12:22:33;;;;;;;24.52;9.93;;;;;;;;;;5021632;28;20040;-57
2021/12/27 12:25:24;;;;;;;20.05;9.30;;;;;;;;;;5024232;28;20046;-56
2021/12/27 12:28:01;;;;;;;23.25;10.50;;;;;;;;;;5019036;28;20046;-51
2021/12/27 12:30:32;;;;;;;24.67;10.05;;;;;;;;;;5021702;28;20516;-52
2021/12/27 12:33:05;;;;;;;24.33;10.10;;;;;;;;;;5022802;28;20025;-57
2021/12/27 12:35:33;;;;;;;;;;;;;;;;;;5022924;28;20056;-50
2021/12/27 12:38:09;;;;;;;25.50;11.10;;;;;;;;;;5024304;28;19916;-55
2021/12/27 12:40:34;;;;;;;26.95;11.65;;;;;;;;;;5024923;28;20029;-55
2021/12/27 12:42:59;;;;;;;35.35;12.93;;;;;;;;;;5025015;28;20044;-56
2021/12/27 12:45:30;;;;;;;31.08;12.48;;;;;;;;;;5023925;28;20121;-52
2021/12/27 12:47:55;;;;;;;32.20;12.43;;;;;;;;;;5026427;28;20040;-56
2021/12/27 12:50:22;;;;;;;33.67;12.85;;;;;;;;;;5022186;28;20051;-56
2021/12/27 12:52:56;;;;;;;35.90;12.68;;;;;;;;;;5024292;28;20037;-57
2021/12/27 12:55:23;;;;;;;37.80;12.80;;;;;;;;;;5022756;28;20033;-56
2021/12/27 12:57:50;;;;;;;33.22;12.85;;;;;;;;;;5024567;28;20498;-57
2021/12/27 13:00:24;;;;;;;29.60;12.13;;;;;;;;;;5025395;28;20033;-56
2021/12/27 13:02:49;;;;;;;36.60;13.35;;;;;;;;;;5024457;28;20021;-58
2021/12/27 13:05:16;;;;;;;35.95;13.02;;;;;;;;;;5023855;28;20033;-59
2021/12/27 13:07:54;;;;;;;35.88;13.07;;;;;;;;;;5022798;28;20044;-56
2021/12/27 13:10:23;;;;;;;37.03;12.80;;;;;;;;;;5021516;28;20089;-57
2021/12/27 13:12:50;;;;;;;34.90;13.07;;;;;;;;;;5003395;28;20044;-58
2021/12/27 13:15:19;;;;;;;32.42;13.75;;;;;;;;;;5025135;28;20033;-57
2021/12/27 13:18:15;;;;;;;32.72;12.88;;;;;;;;;;5022894;28;20188;-54
2021/12/27 13:20:47;;;;;;;35.95;14.13;;;;;;;;;;5023589;28;20026;-57
2021/12/27 13:23:15;;;;;;;28.38;11.82;;;;;;;;;;5023819;28;20041;-56
2021/12/27 13:25:45;;;;;;;25.30;12.18;;;;;;;;;;5027091;28;20125;-58
2021/12/27 13:28:13;;;;;;;23.52;12.15;;;;;;;;;;5021461;28;20120;-58
2021/12/27 13:31:00;;;;;;;30.40;13.30;;;;;;;;;;5024818;28;20405;-57
2021/12/27 13:33:28;;;;;;;27.80;13.52;;;;;;;;;;5026360;28;20021;-57
2021/12/27 13:35:55;;;;;;;26.10;13.10;;;;;;;;;;5025064;28;20113;-55
2021/12/27 13:38:22;;;;;;;38.42;15.25;;;;;;;;;;5024578;28;20141;-55
2021/12/27 13:41:09;;;;;;;33.78;15.00;;;;;;;;;;5026278;28;20021;-53
2021/12/27 13:43:56;;;;;;;34.85;15.70;;;;;;;;;;5025904;28;20112;-56
2021/12/27 13:46:26;;;;;;;39.85;15.77;;;;;;;;;;5024485;28;20035;-57
2021/12/27 13:48:52;;;;;;;40.47;16.60;;;;;;;;;;5026682;28;20716;-57
2021/12/27 13:51:27;;;;;;;34.17;15.55;;;;;;;;;;5024558;28;20041;-57
2021/12/27 13:53:56;;;;;;;35.05;15.85;;;;;;;;;;5025290;28;20033;-57
2021/12/27 13:56:24;;;;;;;34.30;14.85;;;;;;;;;;5024586;28;20019;-56
2021/12/27 13:58:50;;;;;;;32.40;14.73;;;;;;;;;;5025338;28;20052;-55
2021/12/27 14:01:19;;;;;;;34.28;15.13;;;;;;;;;;5024911;28;20064;-57
2021/12/27 14:03:47;;;;;;;28.08;13.43;;;;;;;;;;5024890;28;20032;-57
2021/12/27 14:06:13;;;;;;;32.20;14.05;;;;;;;;;;5023447;28;20493;-55
2021/12/27 14:08:53;;;;;;;24.23;12.13;;;;;;;;;;5025384;28;20037;-56
2021/12/27 14:11:19;;;;;;;25.95;11.77;;;;;;;;;;5023890;28;20125;-57
2021/12/27 14:14:01;;;;;;;28.70;12.50;;;;;;;;;;5025715;28;20058;-57
2021/12/27 14:16:30;;;;;;;26.40;12.48;;;;;;;;;;5023290;28;20021;-57
2021/12/27 14:19:14;;;;;;;27.10;11.80;;;;;;;;;;5024686;28;20034;-55
2021/12/27 14:22:23;;;;;;;25.27;12.15;;;;;;;;;;5025123;28;20064;-57
2021/12/27 14:25:02;;;;;;;27.98;11.48;;;;;;;;;;5024759;28;20166;-57
2021/12/27 14:27:32;;;;;;;29.63;12.43;;;;;;;;;;5024150;28;20498;-57
2021/12/27 14:30:07;;;;;;;24.08;12.30;;;;;;;;;;5023228;28;20039;-57
2021/12/27 14:32:34;;;;;;;27.75;12.43;;;;;;;;;;5023404;28;20087;-55
2021/12/27 14:35:00;;;;;;;27.55;12.57;;;;;;;;;;5007436;28;20033;-57
2021/12/27 14:37:25;;;;;;;22.83;11.63;;;;;;;;;;5022867;28;20036;-57
2021/12/27 14:39:52;;;;;;;28.58;12.48;;;;;;;;;;5023628;28;20033;-55